Time;durP1;ratioP1;P1;durP2;ratioP2;P2;SDS_P1;SDS_P2;PMS_P1;PMS_P2;Temp;Humidity;BMP_temperature;BMP_pressure;BME280_temperature;BME280_humidity;BME280_pressure;Samples;Min_cycle;Max_cycle;Signal;HPM_P1;HPM_P2
2021/06/23 00:01:33;;;;;;;5.80;5.30;;;19.50;99.90;;;;;;6194499;23;20429;-85
2021/06/23 00:04:00;;;;;;;5.23;4.77;;;19.50;99.90;;;;;;6194465;23;20793;-83
2021/06/23 00:06:28;;;;;;;6.00;5.53;;;19.60;99.90;;;;;;6195338;23;20416;-85
2021/06/23 00:08:55;;;;;;;5.27;4.87;;;19.60;99.90;;;;;;6194189;23;20409;-85
2021/06/23 00:11:23;;;;;;;5.40;5.00;;;19.60;99.90;;;;;;6173984;23;20962;-85
2021/06/23 00:13:50;;;;;;;8.17;7.30;;;19.60;99.90;;;;;;6192193;23;20423;-85
2021/06/23 00:16:17;;;;;;;6.53;6.03;;;19.60;99.90;;;;;;6192759;23;20445;-85
2021/06/23 00:18:44;;;;;;;7.43;6.80;;;19.50;99.90;;;;;;6202183;23;20426;-85
2021/06/23 00:21:11;;;;;;;7.40;6.50;;;19.60;99.90;;;;;;6193468;23;20439;-85
2021/06/23 00:23:39;;;;;;;8.83;8.00;;;19.50;99.90;;;;;;6193518;23;20949;-85
2021/06/23 00:26:06;;;;;;;8.13;7.47;;;19.50;99.90;;;;;;6194942;23;20508;-85
2021/06/23 00:28:32;;;;;;;7.90;7.27;;;19.50;99.90;;;;;;6194504;23;20419;-85
2021/06/23 00:30:59;;;;;;;8.07;7.40;;;19.50;99.90;;;;;;6194412;23;20504;-85
2021/06/23 00:33:31;;;;;;;8.13;7.43;;;19.50;99.90;;;;;;6194942;23;20413;-85
2021/06/23 00:35:58;;;;;;;9.07;8.23;;;19.50;99.90;;;;;;6195223;23;20398;-85
2021/06/23 00:38:24;;;;;;;10.80;8.87;;;19.50;99.90;;;;;;6195149;23;20394;-83
2021/06/23 00:40:53;;;;;;;8.63;7.93;;;19.50;99.90;;;;;;6192637;23;20503;-84
2021/06/23 00:43:19;;;;;;;9.43;8.40;;;19.50;99.90;;;;;;6192416;23;20455;-85
2021/06/23 00:45:46;;;;;;;9.63;8.83;;;19.40;99.90;;;;;;6192359;23;20412;-84
2021/06/23 00:48:21;;;;;;;8.93;8.13;;;19.40;99.90;;;;;;6192095;23;20408;-84
2021/06/23 00:50:48;;;;;;;8.77;8.00;;;19.50;99.90;;;;;;6192501;23;20440;-84
2021/06/23 00:53:15;;;;;;;9.60;8.77;;;19.40;99.90;;;;;;6192707;23;20901;-83
2021/06/23 00:55:42;;;;;;;10.47;9.63;;;19.40;99.90;;;;;;6192920;23;20425;-85
2021/06/23 00:58:13;;;;;;;9.93;9.07;;;19.40;99.90;;;;;;6193114;23;20472;-85
2021/06/23 01:00:40;;;;;;;9.93;9.03;;;19.30;99.90;;;;;;6194020;23;20439;-85
2021/06/23 01:03:09;;;;;;;9.73;8.57;;;19.30;99.90;;;;;;6193312;23;20459;-84
2021/06/23 01:05:37;;;;;;;10.30;9.40;;;19.30;99.90;;;;;;6195000;23;20416;-85
2021/06/23 01:08:04;;;;;;;10.23;9.43;;;19.30;99.90;;;;;;6201457;23;20731;-85
2021/06/23 01:10:34;;;;;;;11.50;9.77;;;19.20;99.90;;;;;;6192563;23;20946;-84
2021/06/23 01:13:33;;;;;;;11.10;10.10;;;19.20;99.90;;;;;;6193456;23;20393;-85
2021/06/23 01:16:03;;;;;;;9.17;8.37;;;19.20;99.90;;;;;;6210098;23;20450;-82
2021/06/23 01:18:33;;;;;;;10.33;9.43;;;19.10;99.90;;;;;;6212066;23;20480;-83
2021/06/23 01:21:00;;;;;;;9.50;8.70;;;19.10;99.90;;;;;;6197679;23;20420;-84
2021/06/23 01:23:30;;;;;;;9.70;8.93;;;19.10;99.90;;;;;;6196700;23;20476;-85
2021/06/23 01:25:59;;;;;;;9.60;8.70;;;19.10;99.90;;;;;;6196818;23;20396;-85
2021/06/23 01:28:31;;;;;;;10.90;9.57;;;19.10;99.90;;;;;;6196780;23;20424;-85
2021/06/23 01:30:59;;;;;;;9.70;8.93;;;19.10;99.90;;;;;;6196700;23;20509;-84
2021/06/23 01:33:28;;;;;;;9.07;8.27;;;19.10;99.90;;;;;;6196861;23;20406;-84
2021/06/23 01:35:56;;;;;;;8.60;7.13;;;19.10;99.90;;;;;;6197640;23;20448;-85
2021/06/23 01:38:23;;;;;;;7.50;6.97;;;19.10;99.90;;;;;;6196880;23;20415;-85
2021/06/23 01:40:55;;;;;;;6.60;6.00;;;19.10;99.90;;;;;;6197956;23;20431;-84
2021/06/23 01:43:22;;;;;;;7.00;6.50;;;19.10;99.90;;;;;;6196959;23;20437;-84
2021/06/23 01:45:50;;;;;;;8.67;7.13;;;19.00;99.90;;;;;;6196430;23;20395;-85
2021/06/23 01:48:20;;;;;;;7.40;6.90;;;19.10;99.90;;;;;;6195417;23;20578;-85
2021/06/23 01:50:52;;;;;;;7.60;7.00;;;19.10;99.90;;;;;;6195482;23;20515;-84
2021/06/23 01:53:19;;;;;;;8.17;7.37;;;19.00;99.90;;;;;;6195322;23;20413;-85
2021/06/23 01:55:48;;;;;;;7.50;7.00;;;19.00;99.90;;;;;;6200433;23;20396;-80
2021/06/23 01:58:17;;;;;;;8.87;8.17;;;19.00;99.90;;;;;;6201295;23;20433;-83
2021/06/23 02:00:52;;;;;;;9.60;8.67;;;19.00;99.90;;;;;;6198150;23;20420;-83
2021/06/23 02:03:25;;;;;;;9.83;8.93;;;18.90;99.90;;;;;;6197916;23;20452;-83
2021/06/23 02:06:05;;;;;;;10.40;9.60;;;18.80;99.90;;;;;;6198202;23;20829;-83
2021/06/23 02:08:46;;;;;;;9.97;9.13;;;18.80;99.90;;;;;;6197893;23;20869;-83
2021/06/23 02:11:31;;;;;;;10.63;9.83;;;18.80;99.90;;;;;;6198596;23;20444;-84
2021/06/23 02:14:34;;;;;;;9.70;8.80;;;18.80;99.90;;;;;;6198309;23;20423;-83
2021/06/23 02:17:02;;;;;;;8.00;6.90;;;18.80;99.90;;;;;;6202460;23;20400;-83
2021/06/23 02:19:31;;;;;;;9.30;8.40;;;18.80;99.90;;;;;;6204020;23;20392;-82
2021/06/23 02:21:59;;;;;;;8.93;8.27;;;18.70;99.90;;;;;;6205143;23;20509;-81
2021/06/23 02:24:29;;;;;;;8.87;8.00;;;18.70;99.90;;;;;;6206914;23;20449;-82
2021/06/23 02:26:56;;;;;;;9.40;8.70;;;18.70;99.90;;;;;;6206233;23;20965;-82
2021/06/23 02:29:23;;;;;;;8.37;7.70;;;18.60;99.90;;;;;;6206557;23;20487;-82
2021/06/23 02:31:54;;;;;;;9.07;8.27;;;18.60;99.90;;;;;;6198267;23;20438;-83
2021/06/23 02:34:21;;;;;;;9.23;8.43;;;18.60;99.90;;;;;;6198289;23;20452;-83
2021/06/23 02:36:50;;;;;;;8.90;8.20;;;18.60;99.90;;;;;;6198039;23;20921;-83
2021/06/23 02:39:20;;;;;;;8.40;7.70;;;18.60;99.90;;;;;;6198201;23;20405;-83
2021/06/23 02:41:47;;;;;;;8.93;8.13;;;18.60;99.90;;;;;;6197079;23;20439;-84
2021/06/23 02:44:14;;;;;;;8.63;7.93;;;18.50;99.90;;;;;;6197943;23;20500;-83
2021/06/23 02:46:42;;;;;;;9.73;8.60;;;18.50;99.90;;;;;;6207009;23;20424;-83
2021/06/23 02:49:11;;;;;;;9.20;8.40;;;18.50;99.90;;;;;;6197635;23;20398;-84
2021/06/23 02:51:41;;;;;;;10.43;9.57;;;18.50;99.90;;;;;;6196913;23;20434;-83
2021/06/23 02:54:10;;;;;;;9.13;8.40;;;18.40;99.90;;;;;;6197665;23;20439;-83
2021/06/23 02:56:37;;;;;;;9.00;8.20;;;18.40;99.90;;;;;;6198007;23;20487;-83
2021/06/23 02:59:04;;;;;;;9.10;8.30;;;18.40;99.90;;;;;;6198288;23;20404;-83
2021/06/23 03:01:32;;;;;;;9.90;8.90;;;18.40;99.90;;;;;;6198144;23;20428;-83
2021/06/23 03:04:00;;;;;;;11.10;10.20;;;18.30;99.90;;;;;;6198232;23;20440;-83
2021/06/23 03:06:28;;;;;;;10.27;9.23;;;18.30;99.90;;;;;;6196042;23;20440;-83
2021/06/23 03:08:57;;;;;;;9.80;8.90;;;18.30;99.90;;;;;;6198491;23;20404;-83
2021/06/23 03:11:24;;;;;;;10.00;9.10;;;18.20;99.90;;;;;;6197464;23;20426;-83
2021/06/23 03:13:52;;;;;;;11.70;10.60;;;18.20;99.90;;;;;;6199003;23;20415;-83
2021/06/23 03:16:19;;;;;;;10.80;9.80;;;18.20;99.90;;;;;;6198990;23;20411;-83
2021/06/23 03:18:46;;;;;;;11.40;9.23;;;18.20;99.90;;;;;;6198157;23;20423;-83
2021/06/23 03:21:13;;;;;;;12.07;11.00;;;18.20;99.90;;;;;;6198783;23;20521;-83
2021/06/23 03:23:47;;;;;;;9.17;8.47;;;18.20;99.90;;;;;;6198131;23;20444;-83
2021/06/23 03:26:14;;;;;;;10.80;9.90;;;18.20;99.90;;;;;;6199340;23;20458;-83
2021/06/23 03:28:41;;;;;;;9.20;8.50;;;18.10;99.90;;;;;;6199964;23;20416;-83
2021/06/23 03:31:08;;;;;;;12.60;10.43;;;18.20;99.90;;;;;;6197900;23;20450;-86
2021/06/23 03:33:35;;;;;;;12.50;11.30;;;18.10;99.90;;;;;;6198317;23;20407;-85
2021/06/23 03:36:02;;;;;;;11.37;10.47;;;18.20;99.90;;;;;;6205487;23;20445;-86
2021/06/23 03:38:29;;;;;;;12.97;11.87;;;18.10;99.90;;;;;;6200059;23;20463;-83
2021/06/23 03:40:57;;;;;;;11.60;10.40;;;18.20;99.90;;;;;;6197898;23;20421;-83
2021/06/23 03:43:24;;;;;;;10.97;9.97;;;18.20;99.90;;;;;;6198744;23;20444;-83
2021/06/23 03:45:51;;;;;;;12.03;10.87;;;18.20;99.90;;;;;;6199214;23;20444;-83
2021/06/23 03:48:18;;;;;;;10.80;9.80;;;18.20;99.90;;;;;;6198942;23;20416;-83
2021/06/23 03:50:47;;;;;;;10.57;9.57;;;18.30;99.90;;;;;;6199350;23;20441;-83
2021/06/23 03:53:15;;;;;;;10.90;9.63;;;18.30;99.90;;;;;;6198508;23;20425;-83
2021/06/23 03:55:42;;;;;;;9.73;8.77;;;18.30;99.90;;;;;;6198725;23;20784;-82
2021/06/23 03:58:11;;;;;;;10.03;9.07;;;18.40;99.90;;;;;;6199467;23;20432;-83
2021/06/23 04:00:38;;;;;;;9.63;8.80;;;18.40;99.90;;;;;;6199339;23;20421;-83
2021/06/23 04:03:05;;;;;;;10.57;9.57;;;18.30;99.90;;;;;;6198016;23;20418;-83
2021/06/23 04:05:32;;;;;;;10.50;9.57;;;18.20;99.90;;;;;;6199445;23;20932;-83
2021/06/23 04:07:59;;;;;;;10.23;9.33;;;18.10;99.90;;;;;;6198518;23;20726;-83
2021/06/23 04:10:26;;;;;;;9.53;8.70;;;18.10;99.90;;;;;;6198958;23;20435;-83
2021/06/23 04:12:53;;;;;;;8.60;7.90;;;18.20;99.90;;;;;;6198024;23;20427;-83
2021/06/23 04:15:24;;;;;;;9.30;8.43;;;18.20;99.90;;;;;;6198303;23;20409;-83
2021/06/23 04:17:54;;;;;;;9.63;8.80;;;18.30;99.90;;;;;;6198886;23;20378;-83
2021/06/23 04:20:23;;;;;;;9.43;8.20;;;18.30;99.90;;;;;;6198276;23;20439;-83
2021/06/23 04:22:49;;;;;;;9.33;8.53;;;18.40;99.90;;;;;;6198701;23;20417;-83
2021/06/23 04:25:16;;;;;;;8.53;7.87;;;18.40;99.90;;;;;;6206395;23;20460;-83
2021/06/23 04:27:44;;;;;;;8.67;7.87;;;18.40;99.90;;;;;;6198938;23;20420;-83
2021/06/23 04:30:13;;;;;;;8.50;7.13;;;18.40;99.90;;;;;;6198623;23;20459;-83
2021/06/23 04:32:42;;;;;;;8.10;7.23;;;18.50;99.90;;;;;;6197822;23;20415;-83
2021/06/23 04:35:10;;;;;;;8.17;7.57;;;18.50;99.90;;;;;;6196945;23;20405;-83
2021/06/23 04:37:42;;;;;;;8.13;7.43;;;18.40;99.90;;;;;;6198258;23;20492;-83
2021/06/23 04:40:11;;;;;;;8.83;8.03;;;18.40;99.90;;;;;;6204099;23;20420;-82
2021/06/23 04:42:41;;;;;;;7.53;6.97;;;18.40;99.90;;;;;;6207451;23;20939;-82
2021/06/23 04:45:10;;;;;;;8.07;7.37;;;18.40;99.90;;;;;;6201455;23;20436;-84
2021/06/23 04:47:37;;;;;;;6.70;6.30;;;18.40;99.90;;;;;;6196979;23;20442;-83
2021/06/23 04:50:08;;;;;;;7.17;6.67;;;18.50;99.90;;;;;;6198006;23;20426;-84
2021/06/23 04:52:36;;;;;;;8.00;7.40;;;18.50;99.90;;;;;;6196403;23;20415;-83
2021/06/23 04:55:04;;;;;;;5.53;5.13;;;18.50;99.90;;;;;;6199563;23;20412;-83
2021/06/23 04:57:31;;;;;;;5.80;5.17;;;18.60;99.90;;;;;;6199438;23;20959;-83
2021/06/23 04:59:58;;;;;;;7.10;4.63;;;18.60;99.90;;;;;;6200393;23;20510;-83
2021/06/23 05:02:26;;;;;;;6.43;5.67;;;18.70;99.90;;;;;;6200856;23;20408;-84
2021/06/23 05:04:55;;;;;;;4.60;4.23;;;18.60;99.90;;;;;;6199449;23;20436;-84
2021/06/23 05:07:26;;;;;;;4.63;4.23;;;18.70;99.90;;;;;;6199652;23;20408;-84
2021/06/23 05:09:53;;;;;;;6.43;5.23;;;18.70;99.90;;;;;;6200250;23;20396;-83
2021/06/23 05:12:22;;;;;;;4.57;4.17;;;18.70;99.90;;;;;;6199150;23;20478;-83
2021/06/23 05:14:49;;;;;;;4.43;4.07;;;18.80;99.90;;;;;;6207501;23;20412;-82
2021/06/23 05:17:17;;;;;;;5.00;4.60;;;18.80;99.90;;;;;;6199623;23;20420;-83
2021/06/23 05:19:44;;;;;;;4.37;4.07;;;18.80;99.90;;;;;;6197612;23;20420;-83
2021/06/23 05:22:12;;;;;;;3.70;3.50;;;18.80;99.90;;;;;;6198860;23;20416;-84
2021/06/23 05:24:41;;;;;;;2.73;2.53;;;18.80;99.90;;;;;;6200597;23;20482;-83
2021/06/23 05:27:09;;;;;;;2.83;2.53;;;18.80;99.90;;;;;;6199248;23;20413;-83
2021/06/23 05:29:36;;;;;;;3.33;2.30;;;18.90;99.90;;;;;;6199260;23;20906;-84
2021/06/23 05:32:04;;;;;;;2.30;2.10;;;18.90;99.90;;;;;;6199452;23;20417;-83
2021/06/23 05:34:31;;;;;;;1.90;1.80;;;18.90;99.90;;;;;;6197285;23;20405;-83
2021/06/23 05:36:58;;;;;;;2.70;2.50;;;18.90;99.90;;;;;;6196934;23;20427;-83
2021/06/23 05:39:25;;;;;;;2.73;2.50;;;19.00;99.90;;;;;;6197916;23;20807;-84
2021/06/23 05:41:54;;;;;;;2.00;1.80;;;19.00;99.90;;;;;;6197058;23;20432;-84
2021/06/23 05:44:20;;;;;;;1.93;1.60;;;19.00;99.90;;;;;;6196388;23;20445;-83
2021/06/23 05:46:47;;;;;;;1.60;1.50;;;19.10;99.90;;;;;;6197535;23;20412;-83
2021/06/23 05:49:14;;;;;;;2.00;1.83;;;19.10;99.90;;;;;;6191231;23;20416;-82
2021/06/23 05:51:41;;;;;;;2.13;1.90;;;19.20;99.90;;;;;;6190771;23;20455;-82
2021/06/23 05:54:07;;;;;;;2.17;2.07;;;19.20;99.90;;;;;;6191424;23;20431;-82
2021/06/23 05:56:34;;;;;;;2.40;2.30;;;19.30;99.90;;;;;;6191037;23;20413;-82
2021/06/23 05:59:02;;;;;;;1.90;1.80;;;19.40;99.90;;;;;;6190370;23;20908;-82
2021/06/23 06:01:30;;;;;;;2.00;1.90;;;19.40;99.90;;;;;;6190609;23;20442;-82
2021/06/23 06:03:57;;;;;;;2.80;2.60;;;19.50;99.90;;;;;;6200287;23;20472;-83
2021/06/23 06:06:23;;;;;;;3.57;2.70;;;19.60;99.90;;;;;;6189943;23;20417;-81
2021/06/23 06:08:50;;;;;;;2.80;2.50;;;19.60;99.90;;;;;;6191486;23;20992;-82
2021/06/23 06:11:17;;;;;;;2.80;2.60;;;19.70;99.90;;;;;;6190563;23;20433;-81
2021/06/23 06:13:44;;;;;;;2.53;2.30;;;19.80;99.90;;;;;;6191770;23;20409;-80
2021/06/23 06:16:12;;;;;;;2.10;2.00;;;19.90;99.90;;;;;;6190812;23;20417;-82
2021/06/23 06:18:39;;;;;;;2.63;1.60;;;19.90;99.90;;;;;;6189902;23;20507;-82
2021/06/23 06:21:06;;;;;;;2.03;1.83;;;20.00;99.90;;;;;;6189572;23;20442;-82
2021/06/23 06:23:35;;;;;;;1.70;1.60;;;20.10;99.90;;;;;;6188621;23;20413;-79
2021/06/23 06:26:01;;;;;;;2.60;1.90;;;20.10;99.90;;;;;;6188140;23;20448;-81
2021/06/23 06:28:28;;;;;;;1.90;1.80;;;20.20;99.90;;;;;;6191537;23;20417;-82
2021/06/23 06:30:55;;;;;;;1.77;1.67;;;20.20;99.90;;;;;;6197874;23;20504;-81
2021/06/23 06:33:23;;;;;;;1.63;1.53;;;20.30;99.90;;;;;;6189978;23;20424;-85
2021/06/23 06:35:50;;;;;;;2.50;2.00;;;20.40;99.90;;;;;;6189777;23;20416;-85
2021/06/23 06:38:17;;;;;;;3.93;3.50;;;20.50;99.90;;;;;;6193524;23;20410;-80
2021/06/23 06:40:44;;;;;;;2.97;2.13;;;20.60;99.90;;;;;;6197520;23;20510;-83
2021/06/23 06:43:11;;;;;;;1.87;1.77;;;20.60;99.90;;;;;;6199563;23;20795;-85
2021/06/23 06:45:38;;;;;;;3.00;2.80;;;20.70;99.90;;;;;;6202387;23;20500;-84
2021/06/23 06:48:06;;;;;;;2.63;2.43;;;20.70;99.90;;;;;;6200828;23;20417;-83
2021/06/23 06:50:41;;;;;;;4.33;2.90;;;20.80;99.90;;;;;;6201984;23;20441;-84
2021/06/23 06:53:10;;;;;;;4.57;2.77;;;20.80;99.90;;;;;;6208648;23;20381;-85
2021/06/23 06:55:37;;;;;;;3.10;2.80;;;20.80;99.90;;;;;;6201808;23;20473;-84
2021/06/23 06:58:06;;;;;;;5.37;3.50;;;20.90;99.90;;;;;;6202349;23;20433;-84
2021/06/23 07:00:33;;;;;;;3.03;2.70;;;20.90;99.90;;;;;;6200817;23;20464;-84
2021/06/23 07:02:59;;;;;;;2.93;2.73;;;21.00;99.90;;;;;;6201405;23;20502;-85
2021/06/23 07:05:29;;;;;;;3.20;2.97;;;21.00;99.90;;;;;;6202814;23;20533;-84
2021/06/23 07:11:50;;;;;;;2.77;2.57;;;21.10;99.90;;;;;;6194172;23;20514;-83
2021/06/23 07:15:16;;;;;;;;;;;;;;;;;;;;;
2021/06/23 07:21:17;;;;;;;;;;;;;;;;;;;;;
2021/06/23 07:23:53;;;;;;;3.57;2.63;;;21.40;99.90;;;;;;6050881;23;20424;-83
2021/06/23 07:26:32;;;;;;;3.27;3.07;;;21.50;99.90;;;;;;6121053;23;20447;-83
2021/06/23 07:29:03;;;;;;;3.23;3.03;;;21.50;99.90;;;;;;6201492;23;20746;-82
2021/06/23 07:31:44;;;;;;;2.33;2.17;;;21.50;99.90;;;;;;6202070;23;20430;-82
2021/06/23 07:34:33;;;;;;;2.57;2.47;;;21.50;99.90;;;;;;6200151;23;20391;-83
2021/06/23 07:37:06;;;;;;;5.03;2.90;;;21.50;99.90;;;;;;6200843;23;20450;-84
2021/06/23 07:45:46;;;;;;;3.30;2.03;;;21.70;99.90;;;;;;6020177;23;20451;-85
2021/06/23 07:52:17;;;;;;;3.00;2.80;;;22.00;99.90;;;;;;6004083;23;20515;-84
2021/06/23 08:11:15;;;;;;;2.20;2.10;;;23.30;99.90;;;;;;5947522;24;20439;-85
2021/06/23 08:16:48;;;;;;;;;;;;;;;;;;;;;
2021/06/23 08:20:04;;;;;;;;;;;;;;;;;;;;;
2021/06/23 08:22:43;;;;;;;;;;;;;;;;;;;;;
2021/06/23 08:25:15;;;;;;;3.10;2.63;;;24.50;99.90;;;;;;6175839;23;20762;-83
2021/06/23 08:27:42;;;;;;;2.70;2.50;;;24.60;99.90;;;;;;6204880;23;20413;-83
2021/06/23 08:33:31;;;;;;;2.10;2.00;;;24.80;99.90;;;;;;6172581;23;20420;-83
2021/06/23 08:35:58;;;;;;;2.10;1.63;;;24.80;99.90;;;;;;6196866;23;20445;-84
2021/06/23 08:38:26;;;;;;;2.73;1.80;;;24.80;99.90;;;;;;6197218;23;20485;-85
2021/06/23 08:40:54;;;;;;;2.70;2.50;;;24.90;99.90;;;;;;6194818;23;20436;-84
2021/06/23 08:43:21;;;;;;;2.40;1.93;;;24.90;99.90;;;;;;6193443;23;20521;-83
2021/06/23 08:45:48;;;;;;;2.40;2.10;;;25.00;99.90;;;;;;6194547;23;20443;-84
2021/06/23 08:48:15;;;;;;;2.70;2.10;;;25.10;99.90;;;;;;6194008;23;20425;-84
2021/06/23 08:50:43;;;;;;;2.30;2.10;;;25.00;99.20;;;;;;6194277;23;20440;-82
2021/06/23 08:53:11;;;;;;;1.80;1.70;;;25.10;99.40;;;;;;6193534;23;20415;-83
2021/06/23 08:55:38;;;;;;;2.00;1.90;;;25.20;99.60;;;;;;6194551;23;20410;-83
2021/06/23 08:58:06;;;;;;;1.60;1.50;;;25.20;99.20;;;;;;6193229;23;20411;-83
2021/06/23 09:00:33;;;;;;;2.17;2.00;;;25.30;98.40;;;;;;6193555;23;20434;-84
2021/06/23 09:03:02;;;;;;;1.67;1.57;;;25.30;97.60;;;;;;6193540;23;20986;-84
2021/06/23 09:05:48;;;;;;;2.90;2.60;;;25.50;98.30;;;;;;6194045;23;20442;-84
2021/06/23 09:08:28;;;;;;;1.80;1.70;;;25.60;98.50;;;;;;6193175;23;20411;-84
2021/06/23 09:10:54;;;;;;;2.57;2.20;;;25.80;96.60;;;;;;6193158;23;20443;-83
2021/06/23 09:13:21;;;;;;;2.60;2.40;;;25.80;96.50;;;;;;6192888;23;20396;-84
2021/06/23 09:15:51;;;;;;;2.33;2.23;;;26.00;96.40;;;;;;6193738;23;20412;-84
2021/06/23 09:18:19;;;;;;;2.03;1.93;;;26.20;96.00;;;;;;6193899;23;20412;-84
2021/06/23 09:20:50;;;;;;;3.00;2.80;;;26.40;96.60;;;;;;6202648;23;20446;-80
2021/06/23 09:23:17;;;;;;;2.20;2.00;;;26.60;97.00;;;;;;6194725;23;20397;-84
2021/06/23 09:25:45;;;;;;;1.83;1.73;;;26.80;95.20;;;;;;6194882;23;20504;-84
2021/06/23 09:28:17;;;;;;;2.43;2.33;;;27.00;93.30;;;;;;6195835;23;20406;-84
2021/06/23 09:30:45;;;;;;;1.97;1.87;;;27.10;93.40;;;;;;6195883;23;20626;-83
2021/06/23 09:33:18;;;;;;;1.83;1.73;;;27.20;94.00;;;;;;6195465;23;20414;-84
2021/06/23 09:35:47;;;;;;;1.80;1.70;;;27.30;93.20;;;;;;6195492;23;20397;-83
2021/06/23 09:38:33;;;;;;;1.90;1.80;;;27.40;93.20;;;;;;6195881;23;20428;-84
2021/06/23 09:41:00;;;;;;;2.50;2.30;;;27.50;91.70;;;;;;6195761;23;20432;-84
2021/06/23 09:43:35;;;;;;;1.90;1.80;;;27.50;93.00;;;;;;6195872;23;20416;-83
2021/06/23 09:46:16;;;;;;;2.50;2.30;;;27.70;92.70;;;;;;6194916;23;20517;-84
2021/06/23 09:48:44;;;;;;;1.40;1.30;;;27.90;92.30;;;;;;6193727;23;20450;-84
2021/06/23 09:51:12;;;;;;;1.53;1.30;;;28.00;90.60;;;;;;6193411;23;20466;-84
2021/06/23 09:53:40;;;;;;;1.60;1.07;;;28.20;89.40;;;;;;6193690;23;20477;-84
2021/06/23 09:56:29;;;;;;;1.23;1.17;;;28.40;91.10;;;;;;6193397;23;20511;-83
2021/06/23 09:58:57;;;;;;;1.40;1.30;;;28.60;90.20;;;;;;6194284;23;20425;-84
2021/06/23 10:01:25;;;;;;;2.70;2.10;;;28.70;89.90;;;;;;6193764;23;20456;-84
2021/06/23 10:03:57;;;;;;;1.60;1.50;;;28.80;87.50;;;;;;6195481;23;20416;-84
2021/06/23 10:06:26;;;;;;;1.40;1.30;;;28.90;84.20;;;;;;6195501;23;20448;-83
2021/06/23 10:09:14;;;;;;;1.07;1.07;;;28.90;85.50;;;;;;6195734;23;20407;-84
2021/06/23 10:11:42;;;;;;;1.57;1.30;;;28.80;85.70;;;;;;6195199;23;20479;-83
2021/06/23 10:14:10;;;;;;;1.50;1.00;;;28.90;85.00;;;;;;6195803;23;20414;-84
2021/06/23 10:16:37;;;;;;;4.60;1.40;;;28.90;85.30;;;;;;6195985;23;20424;-84
2021/06/23 10:19:06;;;;;;;1.17;1.17;;;29.00;85.50;;;;;;6194983;23;20424;-83
2021/06/23 10:21:35;;;;;;;1.37;1.00;;;29.10;79.50;;;;;;6193349;23;20492;-82
2021/06/23 10:24:02;;;;;;;1.23;0.90;;;29.00;79.90;;;;;;6192975;23;20416;-82
2021/06/23 10:26:31;;;;;;;1.03;0.87;;;28.90;79.50;;;;;;6193235;23;20470;-84
2021/06/23 10:28:59;;;;;;;1.63;1.10;;;28.80;79.00;;;;;;6193773;23;20405;-83
2021/06/23 10:31:28;;;;;;;1.20;1.10;;;28.60;78.90;;;;;;6192882;23;20427;-83
2021/06/23 10:33:55;;;;;;;1.10;0.83;;;28.60;81.30;;;;;;6194088;23;20429;-83
2021/06/23 10:36:24;;;;;;;1.37;1.10;;;28.60;83.30;;;;;;6193882;23;20532;-82
2021/06/23 10:38:52;;;;;;;1.67;0.90;;;28.60;81.90;;;;;;6193530;23;20417;-84
2021/06/23 10:41:20;;;;;;;0.70;0.70;;;28.80;82.50;;;;;;6193066;23;20428;-84
2021/06/23 10:44:22;;;;;;;1.33;0.93;;;28.90;79.40;;;;;;6193523;23;20417;-83
2021/06/23 10:46:52;;;;;;;1.10;1.00;;;29.00;75.40;;;;;;6193247;23;20443;-83
2021/06/23 10:49:41;;;;;;;0.97;0.83;;;29.00;74.70;;;;;;6194015;23;20738;-83
2021/06/23 10:52:36;;;;;;;1.00;0.77;;;29.10;75.80;;;;;;6192742;23;20453;-84
2021/06/23 10:55:29;;;;;;;0.60;0.60;;;29.20;74.50;;;;;;6193994;23;20392;-84
2021/06/23 10:57:58;;;;;;;1.33;0.77;;;29.30;71.60;;;;;;6193745;23;20421;-84
2021/06/23 11:00:31;;;;;;;0.87;0.80;;;29.50;70.40;;;;;;6193657;23;20765;-82
2021/06/23 11:03:04;;;;;;;0.97;0.87;;;29.60;69.90;;;;;;6192894;23;20403;-84
2021/06/23 11:05:39;;;;;;;0.60;0.60;;;29.80;71.90;;;;;;6194169;23;20431;-83
2021/06/23 11:08:27;;;;;;;0.70;0.70;;;30.10;70.70;;;;;;6193425;23;20394;-84
2021/06/23 11:10:54;;;;;;;0.60;0.60;;;30.30;67.90;;;;;;6193011;23;20461;-83
2021/06/23 11:13:23;;;;;;;0.90;0.80;;;30.60;65.90;;;;;;6192856;23;20423;-84
2021/06/23 11:15:53;;;;;;;0.93;0.93;;;30.80;66.70;;;;;;6193285;23;20902;-84
2021/06/23 11:18:23;;;;;;;0.80;0.80;;;31.10;65.80;;;;;;6193268;23;20956;-84
2021/06/23 11:20:51;;;;;;;1.00;0.73;;;31.30;63.70;;;;;;6192406;23;20445;-84
2021/06/23 11:23:41;;;;;;;1.03;0.93;;;31.60;65.70;;;;;;6192986;23;20415;-84
2021/06/23 11:26:08;;;;;;;0.60;0.60;;;31.90;63.30;;;;;;6193296;23;20483;-84
2021/06/23 11:28:35;;;;;;;0.50;0.50;;;32.10;59.70;;;;;;6192503;23;20414;-83
2021/06/23 11:31:09;;;;;;;0.50;0.50;;;32.30;59.10;;;;;;6192719;23;20439;-84
2021/06/23 11:33:50;;;;;;;1.63;1.10;;;32.70;60.20;;;;;;6193138;23;20396;-84
2021/06/23 11:36:19;;;;;;;0.60;0.60;;;33.30;62.60;;;;;;6193269;23;20831;-82
2021/06/23 11:38:47;;;;;;;1.03;0.60;;;33.60;56.80;;;;;;6193800;23;20410;-84
2021/06/23 11:41:15;;;;;;;1.23;0.63;;;34.00;58.00;;;;;;6193858;23;20434;-84
2021/06/23 11:43:42;;;;;;;0.50;0.50;;;34.60;57.50;;;;;;6193111;23;20414;-84
2021/06/23 11:46:10;;;;;;;0.60;0.60;;;35.10;57.20;;;;;;6193641;23;20450;-83
2021/06/23 11:48:38;;;;;;;1.10;0.67;;;35.60;52.40;;;;;;6193500;23;20900;-84
2021/06/23 11:51:06;;;;;;;1.17;1.07;;;35.90;49.80;;;;;;6192496;23;20437;-84
2021/06/23 11:53:33;;;;;;;1.13;1.13;;;36.10;50.20;;;;;;6193389;23;20406;-84
2021/06/23 11:56:00;;;;;;;1.20;0.87;;;36.30;49.50;;;;;;6194405;23;20406;-84
2021/06/23 11:58:27;;;;;;;0.70;0.70;;;36.50;50.80;;;;;;6193421;23;20406;-84
2021/06/23 12:00:54;;;;;;;1.40;0.83;;;36.70;49.20;;;;;;6174147;23;20430;-84
2021/06/23 12:03:22;;;;;;;0.80;0.80;;;37.00;49.90;;;;;;6203327;23;20409;-82
2021/06/23 12:05:49;;;;;;;0.80;0.80;;;37.10;47.30;;;;;;6196179;23;20767;-84
2021/06/23 12:08:17;;;;;;;0.93;0.80;;;37.30;48.80;;;;;;6195665;23;20409;-84
2021/06/23 12:10:44;;;;;;;1.00;0.60;;;37.40;49.50;;;;;;6194446;23;20964;-83
2021/06/23 12:13:13;;;;;;;1.00;1.00;;;37.20;48.10;;;;;;6194624;23;20408;-84
2021/06/23 12:15:40;;;;;;;0.53;0.53;;;36.90;48.50;;;;;;6193596;23;20421;-82
2021/06/23 12:18:10;;;;;;;1.03;0.80;;;36.90;48.10;;;;;;6194047;23;20406;-84
2021/06/23 12:20:39;;;;;;;0.63;0.63;;;37.00;47.20;;;;;;6193769;23;20513;-84
2021/06/23 12:23:08;;;;;;;0.80;0.70;;;37.20;49.00;;;;;;6194234;23;20413;-84
2021/06/23 12:25:37;;;;;;;0.93;0.60;;;37.80;48.00;;;;;;6194723;23;20410;-84
2021/06/23 12:28:06;;;;;;;0.80;0.80;;;38.40;45.10;;;;;;6195283;23;20406;-83
2021/06/23 12:30:33;;;;;;;0.90;0.90;;;38.80;43.60;;;;;;6194504;23;20480;-84
2021/06/23 12:33:03;;;;;;;1.00;0.90;;;39.10;45.60;;;;;;6195271;23;20419;-83
2021/06/23 12:35:30;;;;;;;0.60;0.53;;;39.70;44.50;;;;;;6195619;23;20416;-82
2021/06/23 12:37:59;;;;;;;0.90;0.90;;;40.40;42.50;;;;;;6195452;23;20406;-84
2021/06/23 12:40:27;;;;;;;0.63;0.63;;;40.80;42.80;;;;;;6195143;23;20509;-83
2021/06/23 12:42:54;;;;;;;1.17;0.70;;;41.50;41.00;;;;;;6194529;23;20418;-85
2021/06/23 12:45:21;;;;;;;0.60;0.60;;;41.40;38.20;;;;;;6194393;23;20410;-84
2021/06/23 12:47:48;;;;;;;0.63;0.63;;;41.30;39.60;;;;;;6194776;23;20452;-84
2021/06/23 12:50:18;;;;;;;0.83;0.83;;;41.30;37.90;;;;;;6194595;23;20426;-84
2021/06/23 12:52:45;;;;;;;1.13;0.93;;;41.60;38.70;;;;;;6194470;23;20421;-83
2021/06/23 12:55:14;;;;;;;0.90;0.90;;;41.40;37.80;;;;;;6194312;23;20733;-84
2021/06/23 12:57:41;;;;;;;0.70;0.70;;;41.20;37.10;;;;;;6194400;23;20899;-84
2021/06/23 13:00:09;;;;;;;1.20;1.10;;;41.20;38.50;;;;;;6193894;23;20406;-84
2021/06/23 13:02:36;;;;;;;1.03;0.93;;;40.90;39.00;;;;;;6192355;23;20414;-84
2021/06/23 13:05:05;;;;;;;0.93;0.83;;;40.40;38.70;;;;;;6193694;23;20412;-84
2021/06/23 13:07:32;;;;;;;3.07;0.83;;;39.50;38.50;;;;;;6193665;23;20445;-84
2021/06/23 13:10:02;;;;;;;1.23;1.10;;;38.10;39.60;;;;;;6192542;23;20421;-83
2021/06/23 13:12:31;;;;;;;0.93;0.93;;;37.50;42.30;;;;;;6192848;23;20418;-84
2021/06/23 13:14:58;;;;;;;3.40;0.80;;;37.00;41.50;;;;;;6194908;23;20501;-84
2021/06/23 13:17:26;;;;;;;1.17;1.10;;;36.80;42.20;;;;;;6195364;23;20414;-84
2021/06/23 13:19:53;;;;;;;0.90;0.80;;;37.00;44.20;;;;;;6195135;23;20445;-84
2021/06/23 13:22:20;;;;;;;0.77;0.77;;;37.00;41.50;;;;;;6194450;23;20405;-84
2021/06/23 13:24:46;;;;;;;0.73;0.60;;;36.70;42.40;;;;;;6194868;23;20416;-84
2021/06/23 13:27:13;;;;;;;2.10;0.67;;;36.50;42.50;;;;;;6193847;23;20445;-84
2021/06/23 13:29:42;;;;;;;2.07;1.80;;;35.80;42.10;;;;;;6194377;23;20410;-84
2021/06/23 13:32:11;;;;;;;1.67;1.57;;;34.30;46.70;;;;;;6194350;23;20436;-84
2021/06/23 13:34:39;;;;;;;1.77;1.67;;;33.30;49.60;;;;;;6194137;23;20415;-84
2021/06/23 13:37:06;;;;;;;2.17;1.97;;;32.30;52.20;;;;;;6194095;23;20416;-83
2021/06/23 13:39:34;;;;;;;2.63;1.60;;;31.20;53.70;;;;;;6193618;23;20418;-83
2021/06/23 13:42:01;;;;;;;1.77;1.30;;;29.90;54.90;;;;;;6193862;23;20765;-82
2021/06/23 13:44:28;;;;;;;2.50;1.57;;;29.40;56.70;;;;;;6194516;23;20410;-82